createdAt,value
2018-12-07T00:00:40.404Z,6.40
2018-12-07T00:03:19.503Z,5.83
2018-12-07T00:05:58.167Z,5.63
2018-12-07T00:08:37.283Z,4.03
2018-12-07T00:11:16.904Z,4.10
2018-12-07T00:13:58.606Z,5.87
2018-12-07T00:16:37.812Z,8.93
2018-12-07T00:19:16.518Z,5.30
2018-12-07T00:21:57.922Z,5.00
2018-12-07T00:24:36.438Z,6.57
2018-12-07T00:27:16.100Z,6.83
2018-12-07T00:29:55.887Z,4.97
2018-12-07T00:32:34.531Z,4.37
2018-12-07T00:35:13.294Z,4.63
2018-12-07T00:37:51.921Z,5.10
2018-12-07T00:40:30.595Z,5.00
2018-12-07T00:43:09.175Z,7.73
2018-12-07T00:45:48.127Z,5.77
2018-12-07T00:48:27.480Z,6.37
2018-12-07T00:51:06.566Z,4.43
2018-12-07T00:53:45.546Z,6.33
2018-12-07T00:56:26.009Z,5.33
2018-12-07T00:59:04.689Z,8.00
2018-12-07T01:01:44.589Z,7.97
2018-12-07T01:04:24.929Z,5.07
2018-12-07T01:07:04.081Z,5.17
2018-12-07T01:09:42.665Z,5.77
2018-12-07T01:12:21.304Z,9.27
2018-12-07T01:15:00.213Z,4.13
2018-12-07T01:17:39.110Z,5.50
2018-12-07T01:20:17.877Z,6.57
2018-12-07T01:22:56.853Z,5.13
2018-12-07T01:25:35.577Z,5.00
2018-12-07T01:28:14.444Z,5.43
2018-12-07T01:30:55.704Z,5.00
2018-12-07T01:33:34.332Z,6.37
2018-12-07T01:36:14.120Z,6.40
2018-12-07T01:38:52.828Z,7.17
2018-12-07T01:41:31.793Z,4.50
2018-12-07T01:44:10.505Z,4.87
2018-12-07T01:46:49.527Z,8.07
2018-12-07T01:49:28.194Z,6.57
2018-12-07T01:52:06.776Z,5.63
2018-12-07T01:54:45.561Z,4.70
2018-12-07T01:57:24.170Z,5.10
2018-12-07T02:00:05.131Z,3.37
2018-12-07T02:02:44.699Z,5.00
2018-12-07T02:05:25.501Z,6.23
2018-12-07T02:08:04.144Z,4.43
2018-12-07T02:10:42.934Z,5.70
2018-12-07T02:13:21.595Z,5.33
2018-12-07T02:16:00.113Z,7.57
2018-12-07T02:18:38.982Z,5.03
2018-12-07T02:21:17.670Z,4.90
2018-12-07T02:23:56.856Z,3.40
2018-12-07T02:26:35.499Z,4.37
2018-12-07T02:29:14.904Z,5.87
2018-12-07T02:31:53.752Z,5.93
2018-12-07T02:34:33.528Z,4.33
2018-12-07T02:37:12.508Z,4.77
2018-12-07T02:39:51.604Z,2.90
2018-12-07T02:42:30.151Z,4.90
2018-12-07T02:45:10.872Z,3.67
2018-12-07T02:47:49.832Z,2.80
2018-12-07T02:50:29.115Z,3.90
2018-12-07T02:53:08.258Z,3.73
2018-12-07T02:55:47.267Z,2.77
2018-12-07T02:58:27.273Z,2.03
2018-12-07T03:01:09.629Z,2.57
2018-12-07T03:03:49.013Z,2.83
2018-12-07T03:06:28.644Z,2.60
2018-12-07T03:09:10.523Z,2.13
2018-12-07T03:11:50.402Z,3.43
2018-12-07T03:14:30.790Z,3.60
2018-12-07T03:17:11.811Z,3.03
2018-12-07T03:19:51.093Z,3.60
2018-12-07T03:22:30.594Z,3.50
2018-12-07T03:25:09.893Z,3.67
2018-12-07T03:27:49.278Z,3.93
2018-12-07T03:30:28.355Z,2.80
2018-12-07T03:33:07.263Z,3.57
2018-12-07T03:35:46.254Z,3.13
2018-12-07T03:38:26.085Z,2.20
2018-12-07T03:41:05.075Z,2.20
2018-12-07T03:43:44.670Z,3.27
2018-12-07T03:46:24.001Z,3.90
2018-12-07T03:49:03.685Z,2.97
2018-12-07T03:51:42.877Z,2.80
2018-12-07T03:54:27.060Z,3.93
2018-12-07T03:57:07.003Z,2.47
2018-12-07T03:59:46.064Z,3.37
2018-12-07T04:02:27.558Z,3.33
2018-12-07T04:05:07.392Z,2.37
2018-12-07T04:07:49.919Z,2.23
2018-12-07T04:14:15.568Z,3.10
2018-12-07T04:16:54.784Z,2.73
2018-12-07T04:19:33.797Z,2.67
2018-12-07T04:22:12.750Z,2.93
2018-12-07T04:24:53.340Z,3.90
2018-12-07T04:27:33.617Z,2.40
2018-12-07T04:30:23.607Z,4.37
2018-12-07T04:33:04.917Z,1.70
2018-12-07T04:35:45.034Z,5.10
2018-12-07T04:38:25.517Z,3.40
2018-12-07T04:41:05.856Z,3.10
2018-12-07T04:43:45.448Z,3.00
2018-12-07T04:46:24.511Z,5.00
2018-12-07T04:49:05.847Z,3.63
2018-12-07T04:51:45.718Z,3.30
2018-12-07T04:54:24.855Z,3.20
2018-12-07T04:57:04.123Z,2.10
2018-12-07T04:59:43.683Z,2.27
2018-12-07T05:02:23.452Z,4.13
2018-12-07T05:05:03.750Z,2.53
2018-12-07T05:07:45.870Z,2.60
2018-12-07T05:10:26.843Z,3.83
2018-12-07T05:13:07.871Z,1.80
2018-12-07T05:15:50.677Z,2.90
2018-12-07T05:18:31.740Z,1.87
2018-12-07T05:21:12.780Z,3.13
2018-12-07T05:23:52.663Z,2.33
2018-12-07T05:26:32.413Z,2.73
2018-12-07T05:29:12.343Z,3.13
2018-12-07T05:31:53.437Z,3.20
2018-12-07T05:34:35.032Z,2.93
2018-12-07T05:37:17.682Z,2.97
2018-12-07T05:39:57.867Z,1.83
2018-12-07T05:48:03.908Z,1.83
2018-12-07T05:50:43.999Z,3.00
2018-12-07T05:53:25.288Z,2.50
2018-12-07T05:56:04.818Z,2.87
2018-12-07T05:58:44.307Z,2.17
2018-12-07T06:01:23.286Z,2.50
2018-12-07T06:04:03.149Z,2.00
2018-12-07T06:06:43.284Z,3.27
2018-12-07T06:09:22.666Z,3.33
2018-12-07T06:12:08.248Z,2.87
2018-12-07T06:14:47.410Z,3.20
2018-12-07T06:17:26.571Z,2.83
2018-12-07T06:20:05.422Z,2.47
2018-12-07T06:22:44.661Z,1.67
2018-12-07T06:25:24.189Z,3.50
2018-12-07T06:28:04.891Z,2.57
2018-12-07T06:30:45.293Z,2.43
2018-12-07T06:33:25.370Z,3.00
2018-12-07T06:36:04.923Z,2.00
2018-12-07T06:38:45.659Z,2.60
2018-12-07T06:41:24.576Z,2.50
2018-12-07T06:44:03.920Z,2.93
2018-12-07T06:46:43.514Z,3.00
2018-12-07T06:49:23.248Z,3.47
2018-12-07T06:52:02.344Z,1.27
2018-12-07T06:54:42.438Z,2.93
2018-12-07T06:57:22.854Z,2.10
2018-12-07T07:00:03.687Z,2.30
2018-12-07T07:02:44.429Z,2.10
2018-12-07T07:05:25.817Z,2.77
2018-12-07T07:08:06.260Z,2.90
2018-12-07T07:10:48.100Z,2.77
2018-12-07T07:13:29.619Z,1.43
2018-12-07T07:16:09.516Z,2.40
2018-12-07T07:18:49.275Z,2.43
2018-12-07T07:21:35.275Z,4.10
2018-12-07T07:24:15.564Z,2.70
2018-12-07T07:26:54.917Z,2.33
2018-12-07T07:29:37.461Z,3.67
2018-12-07T07:32:19.072Z,2.33
2018-12-07T07:35:01.072Z,1.93
2018-12-07T07:37:42.459Z,3.33
2018-12-07T07:40:26.234Z,3.03
2018-12-07T07:43:09.652Z,3.00
2018-12-07T07:45:52.492Z,3.20
2018-12-07T07:48:39.340Z,2.40
2018-12-07T07:51:24.051Z,1.83
2018-12-07T07:54:05.341Z,2.20
2018-12-07T07:56:46.914Z,2.77
2018-12-07T07:59:31.002Z,2.83
2018-12-07T08:02:13.098Z,2.40
2018-12-07T08:04:54.077Z,2.83
2018-12-07T08:07:35.196Z,2.10
2018-12-07T08:10:16.737Z,4.40
2018-12-07T08:12:58.852Z,3.37
2018-12-07T08:15:43.016Z,2.47
2018-12-07T08:18:26.909Z,3.57
2018-12-07T08:21:12.453Z,2.53
2018-12-07T08:23:55.218Z,3.27
2018-12-07T08:26:40.317Z,3.20
2018-12-07T08:29:23.935Z,3.83
2018-12-07T08:32:07.360Z,3.00
2018-12-07T08:34:52.284Z,3.13
2018-12-07T08:37:35.742Z,3.10
2018-12-07T08:40:17.749Z,4.47
2018-12-07T08:42:57.865Z,4.37
2018-12-07T08:45:37.010Z,4.67
2018-12-07T08:48:16.355Z,4.10
2018-12-07T08:50:55.571Z,5.17
2018-12-07T08:53:34.630Z,4.47
2018-12-07T08:56:13.646Z,4.80
2018-12-07T08:58:53.169Z,4.40
2018-12-07T09:01:32.331Z,4.60
2018-12-07T09:04:11.282Z,4.47
2018-12-07T09:06:50.271Z,4.73
2018-12-07T09:09:30.657Z,2.60
2018-12-07T09:12:10.179Z,4.27
2018-12-07T09:14:49.153Z,5.70
2018-12-07T09:17:32.935Z,3.20
2018-12-07T09:20:13.112Z,4.67
2018-12-07T09:22:53.722Z,4.57
2018-12-07T09:25:33.589Z,5.27
2018-12-07T09:28:13.740Z,5.40
2018-12-07T09:30:55.191Z,5.37
2018-12-07T09:33:36.999Z,5.27
2018-12-07T09:36:20.380Z,3.67
2018-12-07T09:39:02.267Z,4.57
2018-12-07T09:41:43.230Z,3.53
2018-12-07T09:44:25.006Z,3.70
2018-12-07T09:47:10.950Z,3.10
2018-12-07T09:49:53.012Z,3.43
2018-12-07T09:52:34.400Z,8.17
2018-12-07T09:55:18.100Z,7.23
2018-12-07T09:58:02.067Z,4.30
2018-12-07T10:00:48.039Z,4.43
2018-12-07T10:03:28.546Z,6.00
2018-12-07T10:06:14.122Z,4.33
2018-12-07T10:08:55.170Z,3.50
2018-12-07T10:11:36.162Z,4.93
2018-12-07T10:14:16.623Z,3.07
2018-12-07T10:16:57.303Z,3.60
2018-12-07T10:19:38.285Z,6.47
2018-12-07T10:22:18.186Z,6.03
2018-12-07T10:24:58.621Z,4.37
2018-12-07T10:27:39.070Z,3.93
2018-12-07T10:30:20.201Z,7.70
2018-12-07T10:32:59.881Z,6.57
2018-12-07T10:35:40.881Z,3.47
2018-12-07T10:38:23.435Z,6.40
2018-12-07T10:41:05.670Z,3.40
2018-12-07T10:43:45.935Z,5.17
2018-12-07T10:46:28.702Z,5.33
2018-12-07T10:49:12.025Z,5.37
2018-12-07T10:51:55.270Z,4.37
2018-12-07T10:54:37.212Z,3.90
2018-12-07T10:57:20.105Z,7.57
2018-12-07T11:00:02.121Z,5.00
2018-12-07T11:02:48.485Z,6.17
2018-12-07T11:06:34.909Z,3.73
2018-12-07T11:09:21.200Z,4.73
2018-12-07T11:12:05.999Z,6.00
2018-12-07T11:14:51.643Z,6.97
2018-12-07T11:17:38.858Z,3.57
2018-12-07T11:21:22.304Z,4.40
2018-12-07T11:24:07.240Z,5.60
2018-12-07T11:26:55.034Z,3.50
2018-12-07T11:29:39.732Z,5.07
2018-12-07T11:32:24.198Z,6.47
2018-12-07T11:35:09.764Z,6.53
2018-12-07T11:37:51.249Z,5.50
2018-12-07T11:40:32.763Z,5.63
2018-12-07T11:43:15.008Z,5.77
2018-12-07T11:45:58.334Z,6.97
2018-12-07T11:48:44.210Z,3.40
2018-12-07T11:51:30.680Z,5.57
2018-12-07T11:54:17.673Z,5.53
2018-12-07T11:57:03.134Z,7.63
2018-12-07T11:59:46.713Z,6.90
2018-12-07T12:02:34.879Z,7.63
2018-12-07T12:05:17.122Z,4.60
2018-12-07T12:07:58.634Z,6.43
2018-12-07T12:10:42.522Z,6.03
2018-12-07T12:13:24.698Z,5.30
2018-12-07T12:16:08.658Z,4.67
2018-12-07T12:18:50.678Z,4.17
2018-12-07T12:21:33.252Z,5.60
2018-12-07T12:24:14.907Z,3.80
2018-12-07T12:26:58.426Z,5.87
2018-12-07T12:29:40.839Z,6.57
2018-12-07T12:32:23.078Z,6.23
2018-12-07T12:35:05.639Z,3.27
2018-12-07T12:37:49.567Z,3.87
2018-12-07T12:40:36.218Z,7.03
2018-12-07T12:43:22.299Z,5.67
2018-12-07T12:46:05.544Z,6.50
2018-12-07T12:48:49.296Z,4.37
2018-12-07T12:51:31.401Z,5.90
2018-12-07T12:54:13.415Z,3.73
2018-12-07T12:56:55.282Z,3.90
2018-12-07T12:59:38.387Z,3.57
2018-12-07T13:02:21.196Z,4.33
2018-12-07T13:05:03.336Z,4.73
2018-12-07T13:07:45.478Z,5.20
2018-12-07T13:10:29.394Z,4.90
2018-12-07T13:13:11.149Z,4.33
2018-12-07T13:15:55.467Z,3.30
2018-12-07T13:18:39.186Z,3.83
2018-12-07T13:21:21.325Z,5.27
2018-12-07T13:24:04.409Z,5.63
2018-12-07T13:26:47.042Z,5.40
2018-12-07T13:29:29.082Z,4.33
2018-12-07T13:32:10.628Z,4.23
2018-12-07T13:34:52.847Z,3.57
2018-12-07T13:37:34.543Z,4.73
2018-12-07T13:40:16.979Z,4.10
2018-12-07T13:42:58.593Z,4.87
2018-12-07T13:45:40.685Z,4.87
2018-12-07T13:48:23.298Z,4.27
2018-12-07T13:51:04.215Z,4.30
2018-12-07T13:53:47.247Z,3.47
2018-12-07T13:56:28.633Z,4.23
2018-12-07T13:59:11.726Z,4.70
2018-12-07T14:01:55.221Z,3.80
2018-12-07T14:04:39.046Z,6.37
2018-12-07T14:07:20.849Z,4.13
2018-12-07T14:10:04.024Z,6.47
2018-12-07T14:12:54.924Z,4.63
2018-12-07T14:15:40.171Z,4.60
2018-12-07T14:18:24.093Z,5.23
2018-12-07T14:21:09.044Z,5.17
2018-12-07T14:23:53.151Z,4.17
2018-12-07T14:26:35.040Z,4.43
2018-12-07T14:29:18.655Z,2.90
2018-12-07T14:32:00.301Z,4.47
2018-12-07T14:34:42.980Z,4.07
2018-12-07T14:37:28.466Z,4.47
2018-12-07T14:40:13.689Z,5.23
2018-12-07T14:42:56.946Z,4.77
2018-12-07T14:45:38.315Z,3.40
2018-12-07T14:48:19.505Z,4.63
2018-12-07T14:51:02.435Z,4.23
2018-12-07T14:53:45.251Z,5.00
2018-12-07T14:56:26.552Z,3.30
2018-12-07T14:59:08.506Z,4.60
2018-12-07T15:01:50.072Z,3.30
2018-12-07T15:04:34.103Z,3.87
2018-12-07T15:07:13.830Z,4.23
2018-12-07T15:09:55.354Z,4.00
2018-12-07T15:12:35.562Z,5.40
2018-12-07T15:15:15.649Z,3.97
2018-12-07T15:17:57.620Z,3.47
2018-12-07T15:20:38.533Z,3.37
2018-12-07T15:23:18.844Z,3.73
2018-12-07T15:26:00.988Z,3.57
2018-12-07T15:28:45.041Z,4.57
2018-12-07T15:31:27.145Z,6.73
2018-12-07T15:34:09.970Z,4.07
2018-12-07T15:36:54.945Z,5.20
2018-12-07T15:39:36.013Z,5.10
2018-12-07T15:42:16.071Z,3.30
2018-12-07T15:44:56.047Z,3.23
2018-12-07T15:47:36.065Z,3.80
2018-12-07T15:50:16.693Z,5.00
2018-12-07T15:52:56.806Z,6.47
2018-12-07T15:55:36.537Z,4.43
2018-12-07T15:58:15.307Z,3.60
2018-12-07T16:01:00.577Z,2.63
2018-12-07T16:03:50.806Z,2.43
2018-12-07T16:06:30.227Z,4.27
2018-12-07T16:09:11.949Z,3.10
2018-12-07T16:11:51.349Z,3.57
2018-12-07T16:14:30.670Z,2.20
2018-12-07T16:17:10.867Z,3.67
2018-12-07T16:19:51.475Z,5.83
2018-12-07T16:22:32.226Z,6.17
2018-12-07T16:25:12.798Z,3.90
2018-12-07T16:27:54.230Z,2.53
2018-12-07T16:30:34.333Z,4.50
2018-12-07T16:33:14.582Z,3.33
2018-12-07T16:35:55.013Z,2.50
2018-12-07T16:38:35.652Z,2.90
2018-12-07T16:41:15.967Z,3.83
2018-12-07T16:43:55.702Z,2.97
2018-12-07T16:46:34.649Z,3.63
2018-12-07T16:49:13.859Z,3.73
2018-12-07T16:51:53.177Z,2.83
2018-12-07T16:54:32.556Z,2.27
2018-12-07T16:57:12.531Z,3.17
2018-12-07T16:59:51.489Z,3.80
2018-12-07T17:02:32.208Z,5.00
2018-12-07T17:05:13.130Z,4.17
2018-12-07T17:07:54.616Z,2.53
2018-12-07T17:10:33.797Z,3.70
2018-12-07T17:13:12.802Z,3.50
2018-12-07T17:15:54.085Z,2.73
2018-12-07T17:18:33.208Z,3.53
2018-12-07T17:21:13.756Z,4.07
2018-12-07T17:23:53.161Z,4.17
2018-12-07T17:26:33.590Z,3.10
2018-12-07T17:29:12.834Z,3.43
2018-12-07T17:31:53.681Z,2.57
2018-12-07T17:34:33.184Z,2.67
2018-12-07T17:37:12.535Z,3.53
2018-12-07T17:39:51.523Z,3.17
2018-12-07T17:42:31.790Z,3.93
2018-12-07T17:45:11.273Z,3.20
2018-12-07T17:47:50.561Z,3.17
2018-12-07T17:50:30.670Z,3.57
2018-12-07T17:53:09.774Z,6.13
2018-12-07T17:55:48.736Z,2.47
2018-12-07T17:58:27.737Z,2.70
2018-12-07T18:01:09.995Z,2.23
2018-12-07T18:03:48.941Z,3.07
2018-12-07T18:06:28.114Z,2.97
2018-12-07T18:09:13.317Z,3.20
2018-12-07T18:11:52.490Z,2.87
2018-12-07T18:14:31.217Z,1.50
2018-12-07T18:17:10.039Z,2.60
2018-12-07T18:19:48.700Z,3.07
2018-12-07T18:22:27.575Z,5.10
2018-12-07T18:25:06.973Z,2.00
2018-12-07T18:27:46.293Z,3.37
2018-12-07T18:30:25.960Z,3.33
2018-12-07T18:33:04.848Z,3.10
2018-12-07T18:35:44.645Z,1.53
2018-12-07T18:38:23.367Z,2.57
2018-12-07T18:41:05.828Z,2.80
2018-12-07T18:43:45.004Z,1.83
2018-12-07T18:46:25.917Z,2.70
2018-12-07T18:49:05.293Z,2.83
2018-12-07T18:51:44.227Z,1.80
2018-12-07T18:54:22.847Z,3.03
2018-12-07T18:57:01.921Z,2.60
2018-12-07T18:59:41.417Z,2.63
2018-12-07T19:02:20.039Z,3.97
2018-12-07T19:04:59.003Z,2.60
2018-12-07T19:07:37.978Z,2.93
2018-12-07T19:10:23.992Z,1.90
2018-12-07T19:13:02.721Z,2.00
2018-12-07T19:15:42.681Z,1.93
2018-12-07T19:18:21.476Z,1.47
2018-12-07T19:21:00.599Z,2.87
2018-12-07T19:23:39.215Z,3.83
2018-12-07T19:26:18.319Z,1.93
2018-12-07T19:28:57.464Z,3.27
2018-12-07T19:31:37.855Z,1.53
2018-12-07T19:34:16.566Z,2.30
2018-12-07T19:36:55.797Z,2.40
2018-12-07T19:39:34.531Z,1.87
2018-12-07T19:42:14.283Z,2.30
2018-12-07T19:44:52.974Z,2.70
2018-12-07T19:47:31.706Z,2.97
2018-12-07T19:50:10.640Z,2.30
2018-12-07T19:52:49.723Z,2.50
2018-12-07T19:55:28.788Z,2.13
2018-12-07T19:58:07.684Z,1.60
2018-12-07T20:00:47.511Z,3.77
2018-12-07T20:03:26.080Z,3.00
2018-12-07T20:06:06.687Z,3.27
2018-12-07T20:08:46.402Z,2.77
2018-12-07T20:11:33.224Z,3.37
2018-12-07T20:14:12.179Z,2.33
2018-12-07T20:16:51.409Z,2.60
2018-12-07T20:19:30.030Z,2.90
2018-12-07T20:22:08.702Z,2.53
2018-12-07T20:24:47.185Z,2.27
2018-12-07T20:27:27.123Z,1.40
2018-12-07T20:30:07.627Z,2.23
2018-12-07T20:32:46.652Z,1.27
2018-12-07T20:35:25.422Z,1.53
2018-12-07T20:38:04.543Z,1.87
2018-12-07T20:40:45.444Z,1.70
2018-12-07T20:43:38.119Z,3.13
2018-12-07T20:46:16.798Z,2.80
2018-12-07T20:48:56.692Z,1.80
2018-12-07T20:51:35.413Z,2.17
2018-12-07T20:54:14.077Z,2.57
2018-12-07T20:56:52.809Z,2.40
2018-12-07T20:59:31.570Z,2.47
2018-12-07T21:02:10.768Z,2.33
2018-12-07T21:04:50.126Z,1.30
2018-12-07T21:07:46.401Z,2.17
2018-12-07T21:10:43.095Z,2.10
2018-12-07T21:13:49.198Z,3.47
2018-12-07T21:17:16.212Z,1.50
2018-12-07T21:20:18.319Z,1.70
2018-12-07T21:22:57.280Z,1.80
2018-12-07T21:25:36.357Z,1.60
2018-12-07T21:28:15.481Z,1.83
2018-12-07T21:31:04.550Z,2.37
2018-12-07T21:33:58.200Z,2.77
2018-12-07T21:36:45.821Z,2.07
2018-12-07T21:39:55.926Z,1.90
2018-12-07T21:42:35.102Z,3.73
2018-12-07T21:45:13.924Z,1.70
2018-12-07T21:48:32.007Z,1.97
2018-12-07T21:51:21.426Z,3.93
2018-12-07T21:54:00.183Z,2.73
2018-12-07T21:56:39.374Z,2.33
2018-12-07T21:59:18.323Z,1.80
2018-12-07T22:01:57.255Z,2.17
2018-12-07T22:04:36.550Z,1.57
2018-12-07T22:07:17.459Z,1.87
2018-12-07T22:09:57.917Z,2.23
2018-12-07T22:12:37.002Z,2.87
2018-12-07T22:15:16.154Z,1.30
2018-12-07T22:17:55.835Z,2.90
2018-12-07T22:20:34.793Z,2.13
2018-12-07T22:23:14.888Z,1.40
2018-12-07T22:25:54.029Z,2.50
2018-12-07T22:28:33.056Z,4.20
2018-12-07T22:31:12.213Z,4.70
2018-12-07T22:33:51.799Z,2.40
2018-12-07T22:36:31.903Z,1.97
2018-12-07T22:39:11.897Z,4.57
2018-12-07T22:41:51.102Z,1.87
2018-12-07T22:44:30.505Z,2.60
2018-12-07T22:47:13.608Z,2.10
2018-12-07T22:49:52.796Z,4.57
2018-12-07T22:52:31.776Z,5.70
2018-12-07T22:55:11.720Z,2.63
2018-12-07T22:57:50.691Z,3.50
2018-12-07T23:00:30.049Z,3.10
2018-12-07T23:03:09.992Z,3.63
2018-12-07T23:05:48.952Z,2.90
2018-12-07T23:08:28.086Z,3.93
2018-12-07T23:11:07.654Z,4.77
2018-12-07T23:13:46.586Z,4.40
2018-12-07T23:16:29.889Z,3.23
2018-12-07T23:19:09.143Z,3.80
2018-12-07T23:21:49.596Z,3.23
2018-12-07T23:24:29.147Z,3.20
2018-12-07T23:27:08.687Z,2.27
2018-12-07T23:29:49.328Z,3.37
2018-12-07T23:32:30.619Z,4.70
2018-12-07T23:35:12.917Z,3.63
2018-12-07T23:37:56.406Z,3.33
2018-12-07T23:40:37.333Z,3.87
2018-12-07T23:43:20.882Z,3.63
2018-12-07T23:46:01.727Z,4.87
2018-12-07T23:48:41.761Z,7.90
2018-12-07T23:51:22.840Z,4.97
2018-12-07T23:54:01.788Z,2.90
2018-12-07T23:56:41.148Z,3.83
2018-12-07T23:59:22.150Z,5.57
